Flugplatz Berlin-Schönefeld International

Bericht für EDDB

vom 19.07. um 16:50 UTC

Wind 9 kt aus 260°

Sichtweite 10 km oder mehr

gering bewölkt in 4300 ft

Temperatur 24.0°C

Taupunkt 14.0°C

Luftfeuchtigkeit 54%

Luftdruck 1013 hPa

keine wesentliche Wetteränderung innerhalb den nächsten 2 Stunden zu erwarten

EDDB 191650Z 26009KT 230V290 9999 FEW043 24/14 Q1013 NOSIG

Prognose für EDDB

vom 19.07. um 00:00 UTC

Zwischen 00:00 UTC und 00:00 UTC

Wind 8 kt aus 230°

Sichtweite 10 km oder mehr

keine signifikanten Wettererscheinungen

keine Wolken


Zwischen 00:00 UTC und 00:00 UTC zeitweise mit einer Wahrscheinlichkeit von 30%

Code: TSRA

aufgelockert bewölkt in 4000 ft


Zwischen 00:00 und 00:00 UTC übergehend zu

variable Windrichtung mit 2 kt

Sichtweite 10 km oder mehr

keine signifikanten Wettererscheinungen

keine Wolken


Am 20.07. zwischen 00:00 und 00:00 UTC übergehend zu

Wind 7 kt aus 180°

Sichtweite 10 km oder mehr

keine signifikanten Wettererscheinungen

keine Wolken

TAF EDDB 191100Z 1912/2012 23008KT CAVOK PROB30 TEMPO 1912/1916 -TSRA SCT040CB BECMG 1919/1921 VRB02KT BECMG 2006/2008 18007KT
Impressum